Utilizamos cookies propias y de terceros para ofrecer nuestros servicios, recoger información estadística e incluir publicidad. Si continua navegando acepta su instalación y uso. Puede cambiar la configuración u obtener más información en nuestra ACEPTAR | Más información

 INFORMACIÓN METAR y TAF
METAR FOR LECH
ADDS - METARS form results

(0720 UTC 25 September 2018)
Data provider http://aviationweather.gov/metar/data/
 
METAR text: LECH 250700Z AUTO 02004KT 350V050 9999 OVC026/// 19/08 Q1025
Conditions at: LECH (CASTELLON , ES) observed 0700 UTC 25 September 2018
Temperature: 19.0°C (66°F)
Dewpoint: 8.0°C (46°F) [RH = 49%]
Pressure (altimeter): 30.27 inches Hg (1025.0 mb)
Winds: from the NNE (20 degrees) at 5 MPH (4 knots; 2.1 m/s)
Visibility: 6 or more miles (10+ km)
Ceiling: 2600 feet AGL
Clouds: overcast cloud deck at 2600 feet AGL
Weather: no significant weather observed at this time

METAR text: LECH 250630Z AUTO 35003KT 320V020 9999 OVC026/// 19/08 Q1025
Conditions at: LECH (CASTELLON , ES) observed 0630 UTC 25 September 2018
Temperature: 19.0°C (66°F)
Dewpoint: 8.0°C (46°F) [RH = 49%]
Pressure (altimeter): 30.27 inches Hg (1025.0 mb)
Winds: from the N (350 degrees) at 3 MPH (3 knots; 1.5 m/s)
Visibility: 6 or more miles (10+ km)
Ceiling: 2600 feet AGL
Clouds: overcast cloud deck at 2600 feet AGL
Weather: no significant weather observed at this time

 MAPA DE AEROPUERTO

 INFORMACIÓN DE PISTA

 FRECUANCIAS DEL AEROPUERTO

 RADIO AYUDAS DEL AEROPUERTO

AVISO LEGAL - POLITICA DE COOKIES - POLITICA DE PRIVACIDAD